sensor_id;sensor_type;location;lat;lon;timestamp;pressure;altitude;pressure_sealevel;temperature;humidity
8398;BME280;4236;54.504;9.588;2022-08-06T00:02:19;102172.63;;;12.18;100.00
8398;BME280;4236;54.504;9.588;2022-08-06T00:04:53;102183.00;;;12.13;100.00
8398;BME280;4236;54.504;9.588;2022-08-06T00:07:23;102186.22;;;12.09;100.00
8398;BME280;4236;54.504;9.588;2022-08-06T00:09:56;102174.38;;;12.03;100.00
8398;BME280;4236;54.504;9.588;2022-08-06T00:12:28;102179.22;;;12.00;100.00
8398;BME280;4236;54.504;9.588;2022-08-06T00:14:59;102192.91;;;11.97;100.00
8398;BME280;4236;54.504;9.588;2022-08-06T00:17:26;102189.56;;;11.95;100.00
8398;BME280;4236;54.504;9.588;2022-08-06T00:19:58;102196.78;;;11.94;100.00
8398;BME280;4236;54.504;9.588;2022-08-06T00:22:26;102196.94;;;11.93;100.00
8398;BME280;4236;54.504;9.588;2022-08-06T00:24:57;102202.28;;;11.93;100.00
8398;BME280;4236;54.504;9.588;2022-08-06T00:27:24;102200.78;;;11.90;100.00
8398;BME280;4236;54.504;9.588;2022-08-06T00:30:04;102201.78;;;11.89;100.00
8398;BME280;4236;54.504;9.588;2022-08-06T00:32:46;102208.16;;;11.88;100.00
8398;BME280;4236;54.504;9.588;2022-08-06T00:35:18;102208.16;;;11.88;100.00
8398;BME280;4236;54.504;9.588;2022-08-06T00:37:49;102212.47;;;11.89;100.00
8398;BME280;4236;54.504;9.588;2022-08-06T00:40:26;102215.84;;;11.91;100.00
8398;BME280;4236;54.504;9.588;2022-08-06T00:42:56;102225.50;;;11.92;100.00
8398;BME280;4236;54.504;9.588;2022-08-06T00:45:32;102228.34;;;11.91;100.00
8398;BME280;4236;54.504;9.588;2022-08-06T00:48:11;102229.34;;;11.90;100.00
8398;BME280;4236;54.504;9.588;2022-08-06T00:50:58;102233.84;;;11.89;100.00
8398;BME280;4236;54.504;9.588;2022-08-06T00:53:27;102228.50;;;11.89;100.00
8398;BME280;4236;54.504;9.588;2022-08-06T00:56:01;102234.69;;;11.90;100.00
8398;BME280;4236;54.504;9.588;2022-08-06T00:58:34;102241.03;;;11.89;100.00
8398;BME280;4236;54.504;9.588;2022-08-06T01:01:06;102236.72;;;11.88;100.00
8398;BME280;4236;54.504;9.588;2022-08-06T01:03:43;102248.91;;;11.82;100.00
8398;BME280;4236;54.504;9.588;2022-08-06T01:06:17;102252.06;;;11.78;100.00
8398;BME280;4236;54.504;9.588;2022-08-06T01:09:05;102251.91;;;11.71;100.00
8398;BME280;4236;54.504;9.588;2022-08-06T01:11:34;102246.53;;;11.63;100.00
8398;BME280;4236;54.504;9.588;2022-08-06T01:14:02;102259.72;;;11.56;100.00
8398;BME280;4236;54.504;9.588;2022-08-06T01:16:38;102254.38;;;11.48;100.00
8398;BME280;4236;54.504;9.588;2022-08-06T01:19:31;102252.56;;;11.41;100.00
8398;BME280;4236;54.504;9.588;2022-08-06T01:22:45;102259.03;;;11.30;100.00
8398;BME280;4236;54.504;9.588;2022-08-06T01:25:54;102263.19;;;11.25;100.00
8398;BME280;4236;54.504;9.588;2022-08-06T01:28:31;102271.53;;;11.22;100.00
8398;BME280;4236;54.504;9.588;2022-08-06T01:31:06;102268.34;;;11.18;100.00
8398;BME280;4236;54.504;9.588;2022-08-06T01:33:39;102272.00;;;11.17;100.00
8398;BME280;4236;54.504;9.588;2022-08-06T01:36:17;102269.66;;;11.14;100.00
8398;BME280;4236;54.504;9.588;2022-08-06T01:38:56;102278.84;;;11.11;100.00
8398;BME280;4236;54.504;9.588;2022-08-06T01:41:32;102277.34;;;11.09;100.00
8398;BME280;4236;54.504;9.588;2022-08-06T01:44:29;102274.16;;;11.05;100.00
8398;BME280;4236;54.504;9.588;2022-08-06T01:47:01;102282.47;;;11.02;100.00
8398;BME280;4236;54.504;9.588;2022-08-06T01:49:33;102274.13;;;10.97;100.00
8398;BME280;4236;54.504;9.588;2022-08-06T01:52:24;102276.28;;;10.94;100.00
8398;BME280;4236;54.504;9.588;2022-08-06T01:54:57;102271.44;;;10.89;100.00
8398;BME280;4236;54.504;9.588;2022-08-06T01:57:26;102277.94;;;10.87;100.00
8398;BME280;4236;54.504;9.588;2022-08-06T02:00:17;102275.59;;;10.84;100.00
8398;BME280;4236;54.504;9.588;2022-08-06T02:02:53;102273.41;;;10.79;100.00
8398;BME280;4236;54.504;9.588;2022-08-06T02:05:23;102275.22;;;10.79;100.00
8398;BME280;4236;54.504;9.588;2022-08-06T02:07:58;102286.22;;;10.76;100.00
8398;BME280;4236;54.504;9.588;2022-08-06T02:10:48;102288.22;;;10.74;100.00
8398;BME280;4236;54.504;9.588;2022-08-06T02:13:19;102281.19;;;10.73;100.00
8398;BME280;4236;54.504;9.588;2022-08-06T02:15:51;102292.91;;;10.72;100.00
8398;BME280;4236;54.504;9.588;2022-08-06T02:18:27;102295.03;;;10.68;100.00
8398;BME280;4236;54.504;9.588;2022-08-06T02:21:02;102290.53;;;10.69;100.00
8398;BME280;4236;54.504;9.588;2022-08-06T02:23:45;102293.34;;;10.67;100.00
8398;BME280;4236;54.504;9.588;2022-08-06T02:26:16;102289.03;;;10.66;100.00
8398;BME280;4236;54.504;9.588;2022-08-06T02:28:46;102292.19;;;10.70;100.00
8398;BME280;4236;54.504;9.588;2022-08-06T02:31:17;102289.53;;;10.70;100.00
8398;BME280;4236;54.504;9.588;2022-08-06T02:33:48;102293.88;;;10.71;100.00
8398;BME280;4236;54.504;9.588;2022-08-06T02:36:42;102292.72;;;10.73;100.00
8398;BME280;4236;54.504;9.588;2022-08-06T02:39:19;102294.41;;;10.74;100.00
8398;BME280;4236;54.504;9.588;2022-08-06T02:42:08;102283.41;;;10.77;100.00
8398;BME280;4236;54.504;9.588;2022-08-06T02:44:58;102302.59;;;10.81;100.00
8398;BME280;4236;54.504;9.588;2022-08-06T02:47:32;102298.78;;;10.83;100.00
8398;BME280;4236;54.504;9.588;2022-08-06T02:50:28;102303.63;;;10.88;100.00
8398;BME280;4236;54.504;9.588;2022-08-06T02:53:04;102303.31;;;10.91;100.00
8398;BME280;4236;54.504;9.588;2022-08-06T02:55:53;102304.31;;;10.90;100.00
8398;BME280;4236;54.504;9.588;2022-08-06T02:58:29;102307.97;;;10.89;100.00
8398;BME280;4236;54.504;9.588;2022-08-06T03:01:07;102305.78;;;10.84;100.00
8398;BME280;4236;54.504;9.588;2022-08-06T03:03:38;102315.63;;;10.84;100.00
8398;BME280;4236;54.504;9.588;2022-08-06T03:06:22;102313.09;;;10.82;100.00
8398;BME280;4236;54.504;9.588;2022-08-06T03:08:54;102318.44;;;10.82;100.00
8398;BME280;4236;54.504;9.588;2022-08-06T03:11:24;102322.94;;;10.82;100.00
8398;BME280;4236;54.504;9.588;2022-08-06T03:13:58;102323.25;;;10.79;100.00
8398;BME280;4236;54.504;9.588;2022-08-06T03:16:27;102320.91;;;10.76;100.00
8398;BME280;4236;54.504;9.588;2022-08-06T03:19:03;102321.22;;;10.73;100.00
8398;BME280;4236;54.504;9.588;2022-08-06T03:21:52;102317.22;;;10.69;100.00
8398;BME280;4236;54.504;9.588;2022-08-06T03:24:23;102315.84;;;10.65;100.00
8398;BME280;4236;54.504;9.588;2022-08-06T03:26:53;102321.38;;;10.63;100.00
8398;BME280;4236;54.504;9.588;2022-08-06T03:29:25;102320.84;;;10.60;100.00
8398;BME280;4236;54.504;9.588;2022-08-06T03:31:53;102321.00;;;10.58;100.00
8398;BME280;4236;54.504;9.588;2022-08-06T03:34:40;102326.50;;;10.57;100.00
8398;BME280;4236;54.504;9.588;2022-08-06T03:37:10;102329.47;;;10.53;100.00
8398;BME280;4236;54.504;9.588;2022-08-06T03:39:43;102332.16;;;10.53;100.00
8398;BME280;4236;54.504;9.588;2022-08-06T03:42:18;102335.78;;;10.52;100.00
8398;BME280;4236;54.504;9.588;2022-08-06T03:44:58;102334.09;;;10.51;100.00
8398;BME280;4236;54.504;9.588;2022-08-06T03:47:30;102334.81;;;10.53;100.00
8398;BME280;4236;54.504;9.588;2022-08-06T03:50:25;102338.47;;;10.52;100.00
8398;BME280;4236;54.504;9.588;2022-08-06T03:53:00;102343.78;;;10.52;100.00
8398;BME280;4236;54.504;9.588;2022-08-06T03:55:31;102343.66;;;10.54;100.00
8398;BME280;4236;54.504;9.588;2022-08-06T03:58:05;102339.00;;;10.56;100.00
8398;BME280;4236;54.504;9.588;2022-08-06T04:00:40;102344.84;;;10.60;100.00
8398;BME280;4236;54.504;9.588;2022-08-06T04:03:12;102344.53;;;10.63;100.00
8398;BME280;4236;54.504;9.588;2022-08-06T04:05:41;102352.06;;;10.67;100.00
8398;BME280;4236;54.504;9.588;2022-08-06T04:08:14;102357.75;;;10.72;100.00
8398;BME280;4236;54.504;9.588;2022-08-06T04:10:44;102356.31;;;10.78;100.00
8398;BME280;4236;54.504;9.588;2022-08-06T04:13:24;102358.81;;;10.87;100.00
8398;BME280;4236;54.504;9.588;2022-08-06T04:16:13;102349.19;;;10.94;100.00
8398;BME280;4236;54.504;9.588;2022-08-06T04:19:01;102355.41;;;11.03;100.00
8398;BME280;4236;54.504;9.588;2022-08-06T04:21:30;102355.44;;;11.11;100.00
8398;BME280;4236;54.504;9.588;2022-08-06T04:24:18;102364.34;;;11.20;100.00
8398;BME280;4236;54.504;9.588;2022-08-06T04:26:51;102357.50;;;11.25;100.00
8398;BME280;4236;54.504;9.588;2022-08-06T04:29:20;102359.69;;;11.30;100.00
8398;BME280;4236;54.504;9.588;2022-08-06T04:31:50;102357.06;;;11.38;100.00
8398;BME280;4236;54.504;9.588;2022-08-06T04:34:40;102362.09;;;11.49;100.00
8398;BME280;4236;54.504;9.588;2022-08-06T04:37:32;102360.66;;;11.71;100.00
8398;BME280;4236;54.504;9.588;2022-08-06T04:40:07;102363.66;;;11.84;100.00
8398;BME280;4236;54.504;9.588;2022-08-06T04:42:41;102362.34;;;11.96;100.00
8398;BME280;4236;54.504;9.588;2022-08-06T04:45:10;102367.53;;;12.05;100.00
8398;BME280;4236;54.504;9.588;2022-08-06T04:47:58;102371.56;;;12.17;100.00
8398;BME280;4236;54.504;9.588;2022-08-06T04:50:29;102367.34;;;12.31;100.00
8398;BME280;4236;54.504;9.588;2022-08-06T04:53:06;102370.50;;;12.59;100.00
8398;BME280;4236;54.504;9.588;2022-08-06T04:55:34;102375.75;;;13.46;100.00
8398;BME280;4236;54.504;9.588;2022-08-06T04:58:04;102376.53;;;14.23;100.00
8398;BME280;4236;54.504;9.588;2022-08-06T05:00:41;102381.50;;;15.66;100.00
8398;BME280;4236;54.504;9.588;2022-08-06T05:03:26;102377.59;;;17.28;100.00
8398;BME280;4236;54.504;9.588;2022-08-06T05:06:18;102377.81;;;18.79;100.00
8398;BME280;4236;54.504;9.588;2022-08-06T05:08:50;102382.56;;;19.92;92.08
8398;BME280;4236;54.504;9.588;2022-08-06T05:11:23;102385.13;;;21.04;84.06
8398;BME280;4236;54.504;9.588;2022-08-06T05:13:54;102381.00;;;21.97;75.90
8398;BME280;4236;54.504;9.588;2022-08-06T05:16:24;102384.03;;;22.77;70.01
8398;BME280;4236;54.504;9.588;2022-08-06T05:18:57;102385.53;;;23.59;66.97
8398;BME280;4236;54.504;9.588;2022-08-06T05:21:46;102401.84;;;24.33;62.06
8398;BME280;4236;54.504;9.588;2022-08-06T05:24:36;102392.06;;;24.87;59.32
8398;BME280;4236;54.504;9.588;2022-08-06T05:27:24;102394.59;;;25.53;55.99
8398;BME280;4236;54.504;9.588;2022-08-06T05:30:12;102398.34;;;26.01;49.25
8398;BME280;4236;54.504;9.588;2022-08-06T05:32:40;102400.22;;;26.27;52.91
8398;BME280;4236;54.504;9.588;2022-08-06T05:35:10;102407.59;;;26.26;51.02
8398;BME280;4236;54.504;9.588;2022-08-06T05:37:43;102403.53;;;26.66;47.60
8398;BME280;4236;54.504;9.588;2022-08-06T05:40:31;102397.22;;;27.07;49.17
8398;BME280;4236;54.504;9.588;2022-08-06T05:43:22;102411.25;;;27.21;48.38
8398;BME280;4236;54.504;9.588;2022-08-06T05:46:11;102416.22;;;27.29;46.15
8398;BME280;4236;54.504;9.588;2022-08-06T05:48:42;102417.13;;;27.44;45.48
8398;BME280;4236;54.504;9.588;2022-08-06T05:51:23;102428.69;;;27.67;46.63
8398;BME280;4236;54.504;9.588;2022-08-06T05:54:15;102418.91;;;28.01;43.87
8398;BME280;4236;54.504;9.588;2022-08-06T05:56:48;102428.25;;;28.50;44.79
8398;BME280;4236;54.504;9.588;2022-08-06T05:59:22;102429.00;;;29.01;43.99
8398;BME280;4236;54.504;9.588;2022-08-06T06:02:05;102425.66;;;29.25;42.38
8398;BME280;4236;54.504;9.588;2022-08-06T06:04:35;102427.69;;;29.58;38.34
8398;BME280;4236;54.504;9.588;2022-08-06T06:07:12;102433.50;;;29.56;41.29
8398;BME280;4236;54.504;9.588;2022-08-06T06:10:00;102431.72;;;29.76;41.16
8398;BME280;4236;54.504;9.588;2022-08-06T06:12:32;102441.25;;;29.93;35.55
8398;BME280;4236;54.504;9.588;2022-08-06T06:15:02;102435.97;;;30.02;38.33
8398;BME280;4236;54.504;9.588;2022-08-06T06:18:07;102436.22;;;30.05;35.36
8398;BME280;4236;54.504;9.588;2022-08-06T06:21:02;102441.69;;;30.10;38.29
8398;BME280;4236;54.504;9.588;2022-08-06T06:23:53;102445.38;;;30.30;38.85
8398;BME280;4236;54.504;9.588;2022-08-06T06:26:27;102445.19;;;30.21;36.41
8398;BME280;4236;54.504;9.588;2022-08-06T06:29:07;102449.84;;;30.26;33.81
8398;BME280;4236;54.504;9.588;2022-08-06T06:31:42;102450.88;;;30.30;35.42
8398;BME280;4236;54.504;9.588;2022-08-06T06:34:40;102451.47;;;30.27;37.29
8398;BME280;4236;54.504;9.588;2022-08-06T06:37:17;102447.09;;;30.21;31.75
8398;BME280;4236;54.504;9.588;2022-08-06T06:39:57;102454.88;;;29.64;37.03
8398;BME280;4236;54.504;9.588;2022-08-06T06:42:33;102455.81;;;29.40;33.89
8398;BME280;4236;54.504;9.588;2022-08-06T06:45:07;102458.72;;;28.84;33.19
8398;BME280;4236;54.504;9.588;2022-08-06T06:48:02;102458.94;;;28.02;34.82
8398;BME280;4236;54.504;9.588;2022-08-06T06:50:35;102455.59;;;27.90;37.18
8398;BME280;4236;54.504;9.588;2022-08-06T06:53:06;102455.03;;;27.78;38.14
8398;BME280;4236;54.504;9.588;2022-08-06T06:55:38;102458.59;;;27.68;36.31
8398;BME280;4236;54.504;9.588;2022-08-06T06:58:25;102466.53;;;27.70;36.78
8398;BME280;4236;54.504;9.588;2022-08-06T07:01:00;102472.03;;;27.75;39.04
8398;BME280;4236;54.504;9.588;2022-08-06T07:03:49;102467.84;;;27.47;37.69
8398;BME280;4236;54.504;9.588;2022-08-06T07:06:17;102471.66;;;26.67;37.66
8398;BME280;4236;54.504;9.588;2022-08-06T07:08:58;102473.94;;;26.44;38.55
8398;BME280;4236;54.504;9.588;2022-08-06T07:11:43;102491.78;;;24.77;40.63
8398;BME280;4236;54.504;9.588;2022-08-06T07:14:30;102486.13;;;24.06;41.69
8398;BME280;4236;54.504;9.588;2022-08-06T07:17:02;102491.50;;;24.01;42.40
8398;BME280;4236;54.504;9.588;2022-08-06T07:19:52;102496.94;;;24.01;43.46
8398;BME280;4236;54.504;9.588;2022-08-06T07:22:22;102494.78;;;24.03;43.88
8398;BME280;4236;54.504;9.588;2022-08-06T07:24:55;102504.13;;;23.79;41.87
8398;BME280;4236;54.504;9.588;2022-08-06T07:27:29;102495.13;;;24.06;41.35
8398;BME280;4236;54.504;9.588;2022-08-06T07:30:17;102496.25;;;23.31;42.48
8398;BME280;4236;54.504;9.588;2022-08-06T07:32:52;102505.16;;;22.91;45.74
8398;BME280;4236;54.504;9.588;2022-08-06T07:35:20;102510.25;;;23.46;43.51
8398;BME280;4236;54.504;9.588;2022-08-06T07:37:54;102508.34;;;23.23;43.14
8398;BME280;4236;54.504;9.588;2022-08-06T07:40:25;102505.13;;;23.38;43.03
8398;BME280;4236;54.504;9.588;2022-08-06T07:43:00;102515.56;;;23.06;42.90
8398;BME280;4236;54.504;9.588;2022-08-06T07:45:37;102504.09;;;23.04;43.33
8398;BME280;4236;54.504;9.588;2022-08-06T07:48:26;102510.25;;;22.99;43.46
8398;BME280;4236;54.504;9.588;2022-08-06T07:51:00;102513.59;;;22.48;43.81
8398;BME280;4236;54.504;9.588;2022-08-06T07:53:30;102516.41;;;22.12;45.61
8398;BME280;4236;54.504;9.588;2022-08-06T07:56:19;102516.13;;;21.47;46.69
8398;BME280;4236;54.504;9.588;2022-08-06T07:58:47;102523.75;;;21.39;48.86
8398;BME280;4236;54.504;9.588;2022-08-06T08:01:16;102519.47;;;21.68;47.78
8398;BME280;4236;54.504;9.588;2022-08-06T08:03:47;102522.00;;;21.81;46.29
8398;BME280;4236;54.504;9.588;2022-08-06T08:06:52;102529.09;;;21.82;47.70
8398;BME280;4236;54.504;9.588;2022-08-06T08:09:22;102519.31;;;21.44;47.79
8398;BME280;4236;54.504;9.588;2022-08-06T08:12:11;102533.63;;;20.59;51.09
8398;BME280;4236;54.504;9.588;2022-08-06T08:14:59;102528.13;;;20.41;50.17
8398;BME280;4236;54.504;9.588;2022-08-06T08:17:28;102531.88;;;21.21;49.33
8398;BME280;4236;54.504;9.588;2022-08-06T08:20:04;102527.16;;;21.34;47.95
8398;BME280;4236;54.504;9.588;2022-08-06T08:22:40;102539.28;;;21.32;50.30
8398;BME280;4236;54.504;9.588;2022-08-06T08:25:16;102538.19;;;21.15;48.97
8398;BME280;4236;54.504;9.588;2022-08-06T08:28:04;102541.03;;;21.26;49.73
8398;BME280;4236;54.504;9.588;2022-08-06T08:30:38;102545.63;;;20.45;46.16
8398;BME280;4236;54.504;9.588;2022-08-06T08:33:06;102550.75;;;20.53;49.05
8398;BME280;4236;54.504;9.588;2022-08-06T08:35:42;102550.38;;;20.50;47.67
8398;BME280;4236;54.504;9.588;2022-08-06T08:38:26;102540.56;;;20.80;45.25
8398;BME280;4236;54.504;9.588;2022-08-06T08:40:56;102536.41;;;21.45;46.60
8398;BME280;4236;54.504;9.588;2022-08-06T08:43:30;102546.44;;;21.63;44.41
8398;BME280;4236;54.504;9.588;2022-08-06T08:46:21;102542.13;;;21.98;44.58
8398;BME280;4236;54.504;9.588;2022-08-06T08:48:58;102547.47;;;22.16;44.92
8398;BME280;4236;54.504;9.588;2022-08-06T08:51:32;102546.44;;;21.63;44.38
8398;BME280;4236;54.504;9.588;2022-08-06T08:54:09;102551.44;;;21.66;45.26
8398;BME280;4236;54.504;9.588;2022-08-06T08:56:44;102545.97;;;22.20;45.03
8398;BME280;4236;54.504;9.588;2022-08-06T08:59:32;102561.69;;;21.82;44.23
8398;BME280;4236;54.504;9.588;2022-08-06T09:02:20;102560.38;;;21.05;46.32
8398;BME280;4236;54.504;9.588;2022-08-06T09:04:50;102560.84;;;21.45;46.81
8398;BME280;4236;54.504;9.588;2022-08-06T09:07:20;102564.41;;;21.64;45.44
8398;BME280;4236;54.504;9.588;2022-08-06T09:10:02;102556.28;;;21.82;46.94
8398;BME280;4236;54.504;9.588;2022-08-06T09:12:30;102559.50;;;22.09;45.56
8398;BME280;4236;54.504;9.588;2022-08-06T09:15:11;102560.97;;;22.52;44.56
8398;BME280;4236;54.504;9.588;2022-08-06T09:17:40;102547.66;;;22.21;43.62
8398;BME280;4236;54.504;9.588;2022-08-06T09:20:28;102561.75;;;21.57;44.03
8398;BME280;4236;54.504;9.588;2022-08-06T09:22:59;102569.22;;;21.43;44.25
8398;BME280;4236;54.504;9.588;2022-08-06T09:25:40;102559.91;;;21.76;44.54
8398;BME280;4236;54.504;9.588;2022-08-06T09:28:32;102558.63;;;22.56;41.56
8398;BME280;4236;54.504;9.588;2022-08-06T09:31:03;102560.94;;;22.41;42.70
8398;BME280;4236;54.504;9.588;2022-08-06T09:33:54;102557.91;;;22.49;42.88
8398;BME280;4236;54.504;9.588;2022-08-06T09:36:43;102563.75;;;23.29;41.99
8398;BME280;4236;54.504;9.588;2022-08-06T09:39:12;102574.94;;;22.86;42.88
8398;BME280;4236;54.504;9.588;2022-08-06T09:41:50;102567.41;;;23.11;41.75
8398;BME280;4236;54.504;9.588;2022-08-06T09:44:19;102573.34;;;23.43;40.70
8398;BME280;4236;54.504;9.588;2022-08-06T09:47:19;102576.13;;;22.90;42.65
8398;BME280;4236;54.504;9.588;2022-08-06T09:49:47;102576.47;;;22.22;43.40
8398;BME280;4236;54.504;9.588;2022-08-06T09:52:26;102587.88;;;21.58;44.73
8398;BME280;4236;54.504;9.588;2022-08-06T09:54:55;102600.25;;;20.73;47.87
8398;BME280;4236;54.504;9.588;2022-08-06T09:57:28;102599.25;;;20.30;49.55
8398;BME280;4236;54.504;9.588;2022-08-06T10:00:08;102603.44;;;20.19;49.25
8398;BME280;4236;54.504;9.588;2022-08-06T10:02:41;102608.38;;;19.84;49.98
8398;BME280;4236;54.504;9.588;2022-08-06T10:05:16;102610.72;;;19.35;48.47
8398;BME280;4236;54.504;9.588;2022-08-06T10:07:46;102607.38;;;19.26;49.03
8398;BME280;4236;54.504;9.588;2022-08-06T10:10:38;102606.97;;;19.10;48.57
8398;BME280;4236;54.504;9.588;2022-08-06T10:13:12;102604.81;;;19.84;48.85
8398;BME280;4236;54.504;9.588;2022-08-06T10:15:45;102605.09;;;20.33;48.73
8398;BME280;4236;54.504;9.588;2022-08-06T10:18:34;102595.59;;;20.49;46.50
8398;BME280;4236;54.504;9.588;2022-08-06T10:21:24;102602.19;;;21.47;47.10
8398;BME280;4236;54.504;9.588;2022-08-06T10:24:01;102600.22;;;21.97;44.54
8398;BME280;4236;54.504;9.588;2022-08-06T10:26:33;102611.03;;;22.33;44.87
8398;BME280;4236;54.504;9.588;2022-08-06T10:29:02;102604.91;;;22.68;44.83
8398;BME280;4236;54.504;9.588;2022-08-06T10:31:31;102605.09;;;22.54;41.86
8398;BME280;4236;54.504;9.588;2022-08-06T10:34:00;102611.06;;;21.97;42.13
8398;BME280;4236;54.504;9.588;2022-08-06T10:36:32;102602.38;;;21.70;41.92
8398;BME280;4236;54.504;9.588;2022-08-06T10:39:03;102603.75;;;21.97;42.41
8398;BME280;4236;54.504;9.588;2022-08-06T10:41:54;102598.94;;;22.77;41.70
8398;BME280;4236;54.504;9.588;2022-08-06T10:44:30;102600.06;;;23.23;41.65
8398;BME280;4236;54.504;9.588;2022-08-06T10:47:05;102592.41;;;23.43;40.90
8398;BME280;4236;54.504;9.588;2022-08-06T10:49:33;102593.31;;;23.37;41.56
8398;BME280;4236;54.504;9.588;2022-08-06T10:52:21;102585.56;;;22.76;42.85
8398;BME280;4236;54.504;9.588;2022-08-06T10:54:51;102593.75;;;22.57;44.28
8398;BME280;4236;54.504;9.588;2022-08-06T10:57:20;102578.16;;;23.06;42.90
8398;BME280;4236;54.504;9.588;2022-08-06T11:00:04;102586.72;;;23.56;42.90
8398;BME280;4236;54.504;9.588;2022-08-06T11:02:38;102589.41;;;23.79;39.95
8398;BME280;4236;54.504;9.588;2022-08-06T11:05:25;102585.41;;;23.70;39.84
8398;BME280;4236;54.504;9.588;2022-08-06T11:08:23;102580.44;;;23.32;41.77
8398;BME280;4236;54.504;9.588;2022-08-06T11:11:25;102589.75;;;23.36;41.58
8398;BME280;4236;54.504;9.588;2022-08-06T11:14:08;102593.81;;;21.91;41.17
8398;BME280;4236;54.504;9.588;2022-08-06T11:16:54;102598.69;;;21.83;46.99
8398;BME280;4236;54.504;9.588;2022-08-06T11:19:38;102601.41;;;21.83;46.36
8398;BME280;4236;54.504;9.588;2022-08-06T11:22:33;102590.38;;;22.44;47.08
8398;BME280;4236;54.504;9.588;2022-08-06T11:25:02;102583.09;;;22.86;43.35
8398;BME280;4236;54.504;9.588;2022-08-06T11:27:51;102584.94;;;23.50;42.65
8398;BME280;4236;54.504;9.588;2022-08-06T11:30:36;102584.56;;;23.35;43.12
8398;BME280;4236;54.504;9.588;2022-08-06T11:33:04;102592.97;;;23.80;43.80
8398;BME280;4236;54.504;9.588;2022-08-06T11:35:44;102591.28;;;23.79;42.23
8398;BME280;4236;54.504;9.588;2022-08-06T11:38:56;102593.28;;;23.95;40.56
8398;BME280;4236;54.504;9.588;2022-08-06T11:41:46;102592.31;;;24.12;41.05
8398;BME280;4236;54.504;9.588;2022-08-06T11:44:25;102586.97;;;24.17;40.55
8398;BME280;4236;54.504;9.588;2022-08-06T11:47:10;102590.16;;;23.40;41.27
8398;BME280;4236;54.504;9.588;2022-08-06T11:49:41;102582.59;;;22.77;41.13
8398;BME280;4236;54.504;9.588;2022-08-06T11:52:40;102593.47;;;22.77;43.90
8398;BME280;4236;54.504;9.588;2022-08-06T11:55:11;102594.69;;;22.22;44.90
8398;BME280;4236;54.504;9.588;2022-08-06T11:57:48;102603.44;;;22.83;44.62
8398;BME280;4236;54.504;9.588;2022-08-06T12:00:19;102605.03;;;23.02;44.91
8398;BME280;4236;54.504;9.588;2022-08-06T12:03:07;102605.81;;;23.03;44.12
8398;BME280;4236;54.504;9.588;2022-08-06T12:05:42;102611.56;;;21.87;45.14
8398;BME280;4236;54.504;9.588;2022-08-06T12:08:25;102608.16;;;21.56;45.60
8398;BME280;4236;54.504;9.588;2022-08-06T12:11:28;102612.72;;;21.12;47.62
8398;BME280;4236;54.504;9.588;2022-08-06T12:14:02;102612.25;;;21.65;49.48
8398;BME280;4236;54.504;9.588;2022-08-06T12:16:50;102588.78;;;22.54;46.57
8398;BME280;4236;54.504;9.588;2022-08-06T12:19:25;102600.94;;;23.46;43.68
8398;BME280;4236;54.504;9.588;2022-08-06T12:21:53;102594.59;;;23.92;41.69
8398;BME280;4236;54.504;9.588;2022-08-06T12:24:24;102602.31;;;23.02;42.78
8398;BME280;4236;54.504;9.588;2022-08-06T12:27:13;102607.91;;;22.48;44.96
8398;BME280;4236;54.504;9.588;2022-08-06T12:29:42;102606.97;;;22.24;45.83
8398;BME280;4236;54.504;9.588;2022-08-06T12:32:21;102613.41;;;21.50;47.30
8398;BME280;4236;54.504;9.588;2022-08-06T12:34:53;102623.03;;;20.97;48.66
8398;BME280;4236;54.504;9.588;2022-08-06T12:37:33;102619.66;;;20.32;50.50
8398;BME280;4236;54.504;9.588;2022-08-06T12:40:16;102622.22;;;20.14;49.96
8398;BME280;4236;54.504;9.588;2022-08-06T12:43:10;102623.91;;;20.09;52.07
8398;BME280;4236;54.504;9.588;2022-08-06T12:45:42;102629.25;;;20.28;52.31
8398;BME280;4236;54.504;9.588;2022-08-06T12:48:30;102628.22;;;20.29;53.29
8398;BME280;4236;54.504;9.588;2022-08-06T12:51:05;102630.53;;;20.19;53.20
8398;BME280;4236;54.504;9.588;2022-08-06T12:53:41;102626.78;;;20.27;53.73
8398;BME280;4236;54.504;9.588;2022-08-06T12:56:14;102627.53;;;20.40;54.07
8398;BME280;4236;54.504;9.588;2022-08-06T12:58:59;102627.56;;;20.34;55.59
8398;BME280;4236;54.504;9.588;2022-08-06T13:01:31;102630.53;;;20.19;54.78
8398;BME280;4236;54.504;9.588;2022-08-06T13:04:20;102627.50;;;20.47;56.07
8398;BME280;4236;54.504;9.588;2022-08-06T13:06:59;102623.03;;;20.97;54.62
8398;BME280;4236;54.504;9.588;2022-08-06T13:09:29;102630.59;;;20.88;54.08
8398;BME280;4236;54.504;9.588;2022-08-06T13:12:11;102621.25;;;20.84;53.60
8398;BME280;4236;54.504;9.588;2022-08-06T13:14:56;102626.88;;;20.83;53.45
8398;BME280;4236;54.504;9.588;2022-08-06T13:17:38;102622.00;;;20.67;52.87
8398;BME280;4236;54.504;9.588;2022-08-06T13:20:35;102627.94;;;20.82;52.35
8398;BME280;4236;54.504;9.588;2022-08-06T13:23:05;102621.81;;;20.93;53.14
8398;BME280;4236;54.504;9.588;2022-08-06T13:25:41;102622.53;;;21.07;54.55
8398;BME280;4236;54.504;9.588;2022-08-06T13:28:20;102621.19;;;20.91;55.67
8398;BME280;4236;54.504;9.588;2022-08-06T13:30:55;102615.28;;;21.32;53.99
8398;BME280;4236;54.504;9.588;2022-08-06T13:33:27;102614.00;;;21.77;51.78
8398;BME280;4236;54.504;9.588;2022-08-06T13:36:05;102618.97;;;22.17;50.36
8398;BME280;4236;54.504;9.588;2022-08-06T13:38:39;102610.19;;;22.33;49.73
8398;BME280;4236;54.504;9.588;2022-08-06T13:41:08;102617.16;;;22.11;48.86
8398;BME280;4236;54.504;9.588;2022-08-06T13:43:40;102606.78;;;21.46;50.59
8398;BME280;4236;54.504;9.588;2022-08-06T13:46:22;102613.91;;;22.20;49.57
8398;BME280;4236;54.504;9.588;2022-08-06T13:48:56;102620.47;;;22.31;50.13
8398;BME280;4236;54.504;9.588;2022-08-06T13:51:28;102614.06;;;22.55;48.81
8398;BME280;4236;54.504;9.588;2022-08-06T13:54:03;102613.38;;;22.59;47.03
8398;BME280;4236;54.504;9.588;2022-08-06T13:56:44;102619.75;;;22.53;46.73
8398;BME280;4236;54.504;9.588;2022-08-06T13:59:17;102608.78;;;22.60;46.29
8398;BME280;4236;54.504;9.588;2022-08-06T14:01:49;102612.16;;;22.74;45.97
8398;BME280;4236;54.504;9.588;2022-08-06T14:04:20;102602.56;;;22.71;46.67
8398;BME280;4236;54.504;9.588;2022-08-06T14:06:52;102608.19;;;22.88;44.21